createdAt,value
2019-03-18T00:01:41.225Z,79.17
2019-03-18T00:04:10.484Z,79.14
2019-03-18T00:06:39.741Z,79.32
2019-03-18T00:09:08.885Z,79.12
2019-03-18T00:11:38.345Z,79.50
2019-03-18T00:14:07.396Z,79.64
2019-03-18T00:16:36.692Z,79.10
2019-03-18T00:19:05.743Z,78.78
2019-03-18T00:21:35.008Z,79.82
2019-03-18T00:24:04.239Z,79.92
2019-03-18T00:26:33.400Z,80.06
2019-03-18T00:29:04.677Z,79.78
2019-03-18T00:31:33.756Z,80.28
2019-03-18T00:34:02.949Z,80.66
2019-03-18T00:36:32.335Z,80.12
2019-03-18T00:39:01.422Z,79.68
2019-03-18T00:41:30.821Z,80.02
2019-03-18T00:44:00.190Z,80.26
2019-03-18T00:46:29.223Z,79.60
2019-03-18T00:48:58.420Z,79.48
2019-03-18T00:51:27.722Z,79.96
2019-03-18T00:53:56.976Z,78.89
2019-03-18T00:56:27.953Z,79.26
2019-03-18T00:58:57.544Z,79.84
2019-03-18T01:01:26.588Z,79.34
2019-03-18T01:03:55.773Z,78.83
2019-03-18T01:06:25.019Z,79.38
2019-03-18T01:08:54.255Z,79.51
2019-03-18T01:11:23.278Z,79.72
2019-03-18T01:13:52.729Z,79.49
2019-03-18T01:16:21.794Z,79.20
2019-03-18T01:18:51.159Z,78.85
2019-03-18T01:21:20.193Z,79.04
2019-03-18T01:23:49.432Z,79.11
2019-03-18T01:26:18.713Z,78.99
2019-03-18T01:28:47.925Z,78.76
2019-03-18T01:31:17.188Z,79.24
2019-03-18T01:33:46.256Z,79.13
2019-03-18T01:36:15.477Z,79.53
2019-03-18T01:38:46.490Z,79.67
2019-03-18T01:41:15.494Z,79.80
2019-03-18T01:43:44.533Z,80.24
2019-03-18T01:46:13.526Z,80.43
2019-03-18T01:48:43.031Z,79.07
2019-03-18T01:51:12.079Z,79.08
2019-03-18T01:53:41.122Z,79.05
2019-03-18T01:56:10.301Z,78.56
2019-03-18T01:58:39.517Z,78.37
2019-03-18T02:01:08.715Z,78.44
2019-03-18T02:03:37.904Z,79.45
2019-03-18T02:06:07.295Z,79.21
2019-03-18T02:08:36.424Z,78.88
2019-03-18T02:11:05.759Z,78.91
2019-03-18T02:13:34.874Z,79.24
2019-03-18T02:16:04.186Z,79.70
2019-03-18T02:18:33.338Z,79.23
2019-03-18T02:21:02.396Z,79.91
2019-03-18T02:23:31.667Z,80.54
2019-03-18T02:26:01.069Z,80.67
2019-03-18T02:28:30.136Z,80.12
2019-03-18T02:30:59.462Z,80.52
2019-03-18T02:33:28.595Z,80.28
2019-03-18T02:35:57.899Z,80.53
2019-03-18T02:38:27.104Z,80.48
2019-03-18T02:40:56.299Z,81.11
2019-03-18T02:43:25.594Z,81.01
2019-03-18T02:46:09.387Z,80.78
2019-03-18T02:48:25.536Z,81.20
2019-03-18T02:50:54.775Z,80.85
2019-03-18T02:53:23.850Z,81.02
2019-03-18T02:55:52.930Z,80.01
2019-03-18T02:58:21.930Z,80.80
2019-03-18T03:00:51.156Z,80.05
2019-03-18T03:03:20.216Z,80.74
2019-03-18T03:05:49.565Z,80.93
2019-03-18T03:08:18.648Z,80.55
2019-03-18T03:10:47.880Z,81.11
2019-03-18T03:13:17.237Z,80.45
2019-03-18T03:15:46.524Z,80.82
2019-03-18T03:18:15.647Z,80.90
2019-03-18T03:20:45.141Z,81.35
2019-03-18T03:23:14.196Z,81.50
2019-03-18T03:25:43.297Z,81.24
2019-03-18T03:28:12.521Z,81.62
2019-03-18T03:30:41.716Z,81.67
2019-03-18T03:33:10.933Z,81.88
2019-03-18T03:35:40.111Z,82.25
2019-03-18T03:38:09.417Z,82.56
2019-03-18T03:40:38.699Z,82.78
2019-03-18T03:43:07.883Z,83.12
2019-03-18T03:45:37.104Z,83.41
2019-03-18T03:48:06.309Z,84.32
2019-03-18T03:50:35.592Z,83.79
2019-03-18T03:53:05.110Z,83.88
2019-03-18T03:55:34.107Z,84.89
2019-03-18T03:58:03.158Z,84.52
2019-03-18T04:00:32.386Z,85.14
2019-03-18T04:03:01.781Z,85.00
2019-03-18T04:05:30.837Z,85.07
2019-03-18T04:08:00.137Z,85.79
2019-03-18T04:10:29.322Z,85.89
2019-03-18T04:12:58.424Z,85.92
2019-03-18T04:15:27.711Z,86.09
2019-03-18T04:17:56.901Z,86.49
2019-03-18T04:20:26.096Z,86.41
2019-03-18T04:22:55.411Z,87.02
2019-03-18T04:25:24.601Z,86.40
2019-03-18T04:27:53.792Z,86.60
2019-03-18T04:30:23.030Z,86.50
2019-03-18T04:32:52.267Z,86.96
2019-03-18T04:35:21.537Z,86.79
2019-03-18T04:37:50.661Z,86.85
2019-03-18T04:40:19.757Z,86.90
2019-03-18T04:42:49.504Z,87.20
2019-03-18T04:45:18.530Z,87.02
2019-03-18T04:47:47.563Z,86.52
2019-03-18T04:50:16.760Z,86.89
2019-03-18T04:52:45.973Z,87.10
2019-03-18T04:55:15.289Z,87.22
2019-03-18T04:57:44.455Z,87.23
2019-03-18T05:00:13.815Z,87.24
2019-03-18T05:02:42.831Z,87.48
2019-03-18T05:05:12.156Z,87.48
2019-03-18T05:07:41.397Z,87.24
2019-03-18T05:10:10.570Z,86.93
2019-03-18T05:12:39.864Z,86.93
2019-03-18T05:15:08.968Z,86.83
2019-03-18T05:17:38.302Z,85.45
2019-03-18T05:20:07.665Z,85.45
2019-03-18T05:22:36.743Z,85.28
2019-03-18T05:25:05.969Z,85.95
2019-03-18T05:27:35.070Z,85.87
2019-03-18T05:30:04.381Z,85.87
2019-03-18T05:32:33.582Z,85.43
2019-03-18T05:35:02.757Z,85.46
2019-03-18T05:37:32.112Z,84.74
2019-03-18T05:40:01.138Z,85.24
2019-03-18T05:42:30.426Z,84.88
2019-03-18T05:45:00.034Z,85.32
2019-03-18T05:47:38.587Z,85.58
2019-03-18T05:50:00.098Z,85.78
2019-03-18T05:52:29.211Z,85.94
2019-03-18T05:54:58.635Z,86.25
2019-03-18T05:57:27.800Z,86.26
2019-03-18T05:59:57.034Z,86.45
2019-03-18T06:02:26.369Z,86.70
2019-03-18T06:04:55.420Z,87.16
2019-03-18T06:07:24.667Z,86.35
2019-03-18T06:09:53.851Z,86.35
2019-03-18T06:12:23.102Z,85.52
2019-03-18T06:14:52.398Z,86.14
2019-03-18T06:17:21.416Z,85.47
2019-03-18T06:19:50.857Z,85.47
2019-03-18T06:22:20.007Z,86.16
2019-03-18T06:24:49.122Z,85.56
2019-03-18T06:27:18.420Z,85.44
2019-03-18T06:29:47.654Z,85.44
2019-03-18T06:32:16.861Z,86.27
2019-03-18T06:34:46.116Z,86.20
2019-03-18T06:37:15.297Z,85.23
2019-03-18T06:39:44.388Z,85.20
2019-03-18T06:42:13.796Z,84.77
2019-03-18T06:44:43.002Z,84.48
2019-03-18T06:47:12.287Z,84.59
2019-03-18T06:49:41.352Z,85.34
2019-03-18T06:52:10.617Z,85.77
2019-03-18T06:54:39.835Z,85.99
2019-03-18T06:57:09.083Z,85.48
2019-03-18T06:59:39.195Z,85.18
2019-03-18T07:02:08.503Z,84.81
2019-03-18T07:04:37.866Z,85.58
2019-03-18T07:07:06.896Z,85.42
2019-03-18T07:09:36.162Z,86.07
2019-03-18T07:12:05.388Z,85.24
2019-03-18T07:14:34.807Z,84.86
2019-03-18T07:17:03.837Z,85.34
2019-03-18T07:19:33.153Z,85.33
2019-03-18T07:22:02.246Z,85.12
2019-03-18T07:24:31.490Z,85.68
2019-03-18T07:27:00.726Z,86.14
2019-03-18T07:29:29.944Z,86.22
2019-03-18T07:31:59.236Z,86.10
2019-03-18T07:34:28.415Z,85.97
2019-03-18T07:36:57.706Z,85.89
2019-03-18T07:39:26.740Z,86.60
2019-03-18T07:41:56.125Z,86.17
2019-03-18T07:44:25.201Z,85.95
2019-03-18T07:46:54.459Z,86.28
2019-03-18T07:49:23.668Z,85.81
2019-03-18T07:51:52.843Z,85.73
2019-03-18T07:54:32.246Z,85.29
2019-03-18T07:56:52.889Z,85.35
2019-03-18T07:59:21.890Z,85.26
2019-03-18T08:01:50.895Z,85.43
2019-03-18T08:04:19.994Z,85.18
2019-03-18T08:06:49.239Z,84.82
2019-03-18T08:09:18.501Z,83.17
2019-03-18T08:11:47.587Z,82.58
2019-03-18T08:14:16.938Z,81.91
2019-03-18T08:16:46.128Z,80.33
2019-03-18T08:19:15.368Z,82.21
2019-03-18T08:21:44.656Z,81.50
2019-03-18T08:24:13.998Z,80.07
2019-03-18T08:26:43.028Z,79.31
2019-03-18T08:29:12.324Z,77.93
2019-03-18T08:31:41.365Z,75.89
2019-03-18T08:34:10.687Z,74.46
2019-03-18T08:36:39.899Z,71.88
2019-03-18T08:39:09.124Z,70.67
2019-03-18T08:41:38.353Z,69.32
2019-03-18T08:44:08.321Z,70.61
2019-03-18T08:46:37.668Z,69.96
2019-03-18T08:49:07.046Z,69.99
2019-03-18T08:51:36.232Z,70.74
2019-03-18T08:54:05.353Z,70.30
2019-03-18T08:56:34.757Z,71.93
2019-03-18T08:59:03.841Z,70.39
2019-03-18T09:01:33.060Z,69.16
2019-03-18T09:04:02.349Z,69.38
2019-03-18T09:06:31.472Z,69.93
2019-03-18T09:09:00.895Z,69.02
2019-03-18T09:11:30.008Z,68.75
2019-03-18T09:13:59.205Z,67.85
2019-03-18T09:16:28.532Z,66.80
2019-03-18T09:19:07.995Z,66.24
2019-03-18T09:21:28.974Z,67.96
2019-03-18T09:23:58.031Z,66.27
2019-03-18T09:26:27.289Z,68.82
2019-03-18T09:28:56.422Z,68.50
2019-03-18T09:31:25.754Z,71.32
2019-03-18T09:33:54.947Z,69.83
2019-03-18T09:36:24.202Z,70.92
2019-03-18T09:38:53.572Z,70.51
2019-03-18T09:41:22.648Z,69.31
2019-03-18T09:43:51.706Z,69.38
2019-03-18T09:46:21.397Z,69.58
2019-03-18T09:48:50.458Z,70.03
2019-03-18T09:51:19.533Z,70.25
2019-03-18T09:53:48.722Z,69.21
2019-03-18T09:56:17.929Z,70.99
2019-03-18T09:58:47.175Z,68.52
2019-03-18T10:01:16.385Z,68.61
2019-03-18T10:03:45.480Z,69.37
2019-03-18T10:06:14.838Z,69.59
2019-03-18T10:08:44.037Z,68.62
2019-03-18T10:11:15.340Z,69.39
2019-03-18T10:13:44.357Z,69.39
2019-03-18T10:16:13.569Z,69.50
2019-03-18T10:18:42.986Z,68.81
2019-03-18T10:21:12.104Z,68.47
2019-03-18T10:23:41.402Z,68.06
2019-03-18T10:26:10.571Z,69.34
2019-03-18T10:28:39.807Z,69.82
2019-03-18T10:31:09.136Z,68.61
2019-03-18T10:33:38.197Z,69.28
2019-03-18T10:36:07.413Z,69.61
2019-03-18T10:38:36.614Z,70.23
2019-03-18T10:41:06.646Z,68.61
2019-03-18T10:43:35.962Z,67.12
2019-03-18T10:46:05.434Z,68.25
2019-03-18T10:48:34.563Z,66.79
2019-03-18T10:51:03.821Z,67.46
2019-03-18T10:53:33.124Z,67.33
2019-03-18T10:56:07.734Z,66.95
2019-03-18T10:58:32.928Z,65.96
2019-03-18T11:01:01.981Z,68.16
2019-03-18T11:03:32.072Z,66.42
2019-03-18T11:06:01.543Z,67.23
2019-03-18T11:08:30.923Z,65.90
2019-03-18T11:11:00.408Z,65.50
2019-03-18T11:13:29.683Z,63.59
2019-03-18T11:15:58.993Z,62.38
2019-03-18T11:18:28.178Z,61.93
2019-03-18T11:20:58.199Z,60.63
2019-03-18T11:23:27.697Z,59.94
2019-03-18T11:25:56.731Z,59.25
2019-03-18T11:28:25.965Z,61.20
2019-03-18T11:30:55.337Z,57.91
2019-03-18T11:33:24.406Z,57.42
2019-03-18T11:35:55.760Z,58.37
2019-03-18T11:38:25.829Z,59.34
2019-03-18T11:40:55.046Z,59.84
2019-03-18T11:43:24.110Z,59.53
2019-03-18T11:45:53.536Z,60.44
2019-03-18T11:48:22.561Z,58.59
2019-03-18T11:50:51.960Z,60.07
2019-03-18T11:53:21.388Z,60.53
2019-03-18T11:55:50.425Z,60.98
2019-03-18T11:58:19.573Z,61.32
2019-03-18T12:00:48.773Z,61.19
2019-03-18T12:03:17.936Z,61.73
2019-03-18T12:05:47.319Z,61.83
2019-03-18T12:08:16.406Z,62.60
2019-03-18T12:10:45.782Z,63.65
2019-03-18T12:13:14.816Z,64.76
2019-03-18T12:15:44.070Z,64.75
2019-03-18T12:18:13.460Z,65.88
2019-03-18T12:20:42.779Z,66.04
2019-03-18T12:23:11.840Z,65.75
2019-03-18T12:25:40.911Z,65.41
2019-03-18T12:28:10.267Z,67.43
2019-03-18T12:30:39.461Z,67.07
2019-03-18T12:33:08.649Z,65.49
2019-03-18T12:35:37.910Z,66.29
2019-03-18T12:38:07.132Z,67.88
2019-03-18T12:40:36.346Z,68.16
2019-03-18T12:43:05.640Z,67.68
2019-03-18T12:45:34.671Z,66.95
2019-03-18T12:48:04.120Z,66.32
2019-03-18T12:50:49.365Z,65.65
2019-03-18T12:53:04.360Z,64.61
2019-03-18T12:55:33.582Z,65.48
2019-03-18T12:58:02.787Z,65.80
2019-03-18T13:00:32.309Z,68.75
2019-03-18T13:03:01.338Z,71.97
2019-03-18T13:05:30.385Z,77.13
2019-03-18T13:07:59.824Z,79.22
2019-03-18T13:10:28.876Z,82.69
2019-03-18T13:12:58.471Z,83.74
2019-03-18T13:15:27.538Z,82.75
2019-03-18T13:17:56.781Z,81.76
2019-03-18T13:20:26.233Z,80.03
2019-03-18T13:22:55.300Z,78.54
2019-03-18T13:25:26.259Z,77.23
2019-03-18T13:27:55.478Z,78.27
2019-03-18T13:30:24.701Z,79.08
2019-03-18T13:32:53.961Z,77.72
2019-03-18T13:35:23.113Z,77.97
2019-03-18T13:37:52.404Z,77.69
2019-03-18T13:40:21.622Z,79.69
2019-03-18T13:42:50.890Z,78.30
2019-03-18T13:45:19.993Z,77.89
2019-03-18T13:47:49.269Z,76.99
2019-03-18T13:50:18.387Z,77.51
2019-03-18T13:52:47.652Z,78.19
2019-03-18T13:55:16.865Z,81.31
2019-03-18T13:57:46.288Z,79.36
2019-03-18T14:00:15.724Z,79.88
2019-03-18T14:02:44.914Z,79.78
2019-03-18T14:05:14.092Z,82.62
2019-03-18T14:07:43.257Z,83.18
2019-03-18T14:10:13.475Z,84.00
2019-03-18T14:12:42.636Z,84.74
2019-03-18T14:15:13.802Z,84.72
2019-03-18T14:17:42.819Z,83.85
2019-03-18T14:20:13.994Z,80.69
2019-03-18T14:22:43.126Z,81.10
2019-03-18T14:25:12.674Z,82.22
2019-03-18T14:27:41.694Z,84.25
2019-03-18T14:30:13.757Z,85.52
2019-03-18T14:32:43.006Z,84.99
2019-03-18T14:35:12.705Z,82.60
2019-03-18T14:37:42.003Z,83.83
2019-03-18T14:40:12.542Z,84.45
2019-03-18T14:42:41.811Z,84.24
2019-03-18T14:45:13.596Z,84.67
2019-03-18T14:47:42.641Z,84.37
2019-03-18T14:50:12.054Z,84.81
2019-03-18T14:52:41.118Z,83.88
2019-03-18T14:55:10.973Z,84.13
2019-03-18T14:57:40.215Z,79.86
2019-03-18T15:00:19.117Z,79.59
2019-03-18T15:02:48.365Z,80.12
2019-03-18T15:05:17.869Z,80.67
2019-03-18T15:07:46.972Z,80.00
2019-03-18T15:10:16.779Z,80.04
2019-03-18T15:12:46.341Z,78.93
2019-03-18T15:15:15.799Z,79.93
2019-03-18T15:17:45.468Z,74.50
2019-03-18T15:20:14.881Z,73.25
2019-03-18T15:22:44.144Z,74.95
2019-03-18T15:25:24.839Z,74.26
2019-03-18T15:27:55.743Z,73.60
2019-03-18T15:30:24.829Z,73.90
2019-03-18T15:32:54.091Z,75.39
2019-03-18T15:35:23.121Z,75.45
2019-03-18T15:37:52.318Z,75.01
2019-03-18T15:40:21.494Z,74.18
2019-03-18T15:42:50.549Z,73.26
2019-03-18T15:45:19.809Z,72.78
2019-03-18T15:47:49.083Z,71.65
2019-03-18T15:50:19.660Z,71.54
2019-03-18T15:52:48.785Z,72.68
2019-03-18T15:55:18.018Z,71.42
2019-03-18T15:57:47.745Z,69.76
2019-03-18T16:00:18.034Z,69.81
2019-03-18T16:02:48.892Z,70.82
2019-03-18T16:05:18.001Z,71.25
2019-03-18T16:07:47.505Z,68.98
2019-03-18T16:10:17.219Z,70.62
2019-03-18T16:12:47.142Z,72.14
2019-03-18T16:15:17.252Z,71.74
2019-03-18T16:17:46.861Z,71.30
2019-03-18T16:20:16.675Z,72.94
2019-03-18T16:22:47.231Z,70.99
2019-03-18T16:25:17.335Z,70.90
2019-03-18T16:27:46.991Z,69.22
2019-03-18T16:30:16.423Z,68.00
2019-03-18T16:32:45.589Z,70.02
2019-03-18T16:35:16.146Z,70.12
2019-03-18T16:37:45.448Z,70.35
2019-03-18T16:40:14.654Z,69.55
2019-03-18T16:42:44.465Z,67.83
2019-03-18T16:45:14.319Z,69.12
2019-03-18T16:47:43.496Z,69.03
2019-03-18T16:50:14.161Z,69.22
2019-03-18T16:52:43.257Z,69.32
2019-03-18T16:55:12.942Z,69.70
2019-03-18T16:57:42.330Z,70.95
2019-03-18T17:00:16.953Z,71.83
2019-03-18T17:02:46.493Z,71.71
2019-03-18T17:05:18.463Z,72.11
2019-03-18T17:07:50.144Z,72.67
2019-03-18T17:10:19.564Z,73.00
2019-03-18T17:12:49.276Z,72.76
2019-03-18T17:15:19.898Z,73.38
2019-03-18T17:17:49.379Z,73.37
2019-03-18T17:20:18.575Z,73.46
2019-03-18T17:22:49.900Z,74.27
2019-03-18T17:25:19.235Z,74.64
2019-03-18T17:27:48.356Z,74.60
2019-03-18T17:30:18.390Z,74.80
2019-03-18T17:32:47.673Z,75.40
2019-03-18T17:35:16.857Z,75.92
2019-03-18T17:37:46.359Z,76.34
2019-03-18T17:40:15.493Z,76.73
2019-03-18T17:42:44.780Z,76.62
2019-03-18T17:45:14.418Z,77.31
2019-03-18T17:47:43.849Z,77.26
2019-03-18T17:50:15.376Z,76.92
2019-03-18T17:52:44.504Z,76.00
2019-03-18T17:55:13.668Z,75.21
2019-03-18T17:57:42.778Z,75.57
2019-03-18T18:00:16.877Z,75.92
2019-03-18T18:02:46.095Z,76.30
2019-03-18T18:05:15.433Z,75.77
2019-03-18T18:07:44.477Z,72.76
2019-03-18T18:10:13.828Z,76.14
2019-03-18T18:12:43.559Z,76.67
2019-03-18T18:15:13.117Z,78.33
2019-03-18T18:17:42.213Z,77.71
2019-03-18T18:20:11.456Z,78.73
2019-03-18T18:22:41.153Z,78.33
2019-03-18T18:25:10.681Z,79.49
2019-03-18T18:27:41.313Z,79.67
2019-03-18T18:30:10.480Z,79.94
2019-03-18T18:32:39.639Z,80.19
2019-03-18T18:35:11.676Z,80.41
2019-03-18T18:37:40.826Z,80.40
2019-03-18T18:40:11.248Z,80.48
2019-03-18T18:42:40.370Z,81.27
2019-03-18T18:45:10.937Z,81.42
2019-03-18T18:47:40.115Z,81.03
2019-03-18T18:50:10.002Z,81.71
2019-03-18T18:52:39.341Z,82.48
2019-03-18T18:55:08.676Z,82.58
2019-03-18T18:57:38.016Z,82.49
2019-03-18T19:00:08.913Z,82.60
2019-03-18T19:02:38.145Z,82.88
2019-03-18T19:05:08.698Z,82.88
2019-03-18T19:07:37.944Z,82.59
2019-03-18T19:10:08.088Z,82.74
2019-03-18T19:12:37.147Z,83.23
2019-03-18T19:15:08.936Z,82.54
2019-03-18T19:17:38.363Z,84.00
2019-03-18T19:20:08.903Z,84.07
2019-03-18T19:22:38.377Z,84.03
2019-03-18T19:25:09.776Z,83.46
2019-03-18T19:27:39.251Z,83.64
2019-03-18T19:30:11.418Z,84.01
2019-03-18T19:32:40.537Z,84.17
2019-03-18T19:35:10.653Z,84.98
2019-03-18T19:37:39.988Z,84.93
2019-03-18T19:40:11.584Z,85.88
2019-03-18T19:42:41.118Z,85.93
2019-03-18T19:45:11.937Z,85.44
2019-03-18T19:47:41.111Z,86.30
2019-03-18T19:50:12.934Z,86.66
2019-03-18T19:52:42.059Z,87.34
2019-03-18T19:55:11.474Z,87.39
2019-03-18T19:57:40.589Z,87.49
2019-03-18T20:00:13.134Z,87.64
2019-03-18T20:02:42.659Z,88.00
2019-03-18T20:05:15.761Z,88.71
2019-03-18T20:07:43.101Z,89.31
2019-03-18T20:10:12.818Z,89.46
2019-03-18T20:12:41.915Z,89.48
2019-03-18T20:15:12.678Z,89.53
2019-03-18T20:17:42.255Z,89.64
2019-03-18T20:20:12.690Z,89.86
2019-03-18T20:22:41.801Z,89.61
2019-03-18T20:25:11.152Z,89.99
2019-03-18T20:27:40.350Z,89.21
2019-03-18T20:30:12.334Z,88.83
2019-03-18T20:32:41.498Z,88.70
2019-03-18T20:35:11.483Z,89.21
2019-03-18T20:37:40.593Z,89.21
2019-03-18T20:40:10.871Z,89.18
2019-03-18T20:42:40.144Z,89.11
2019-03-18T20:45:11.347Z,88.96
2019-03-18T20:47:40.504Z,89.28
2019-03-18T20:50:11.526Z,89.33
2019-03-18T20:52:40.851Z,90.01
2019-03-18T20:55:10.820Z,90.61
2019-03-18T20:57:40.202Z,91.33
2019-03-18T21:00:10.610Z,91.66
2019-03-18T21:02:39.835Z,92.28
2019-03-18T21:05:09.504Z,92.42
2019-03-18T21:07:40.648Z,92.22
2019-03-18T21:10:11.097Z,92.39
2019-03-18T21:12:41.519Z,92.37
2019-03-18T21:15:10.961Z,92.32
2019-03-18T21:17:40.021Z,92.46
2019-03-18T21:20:11.545Z,92.99
2019-03-18T21:22:40.717Z,93.19
2019-03-18T21:25:09.803Z,93.19
2019-03-18T21:27:38.873Z,93.56
2019-03-18T21:30:08.807Z,93.85
2019-03-18T21:32:38.116Z,93.63
2019-03-18T21:35:07.495Z,93.63
2019-03-18T21:37:36.604Z,93.45
2019-03-18T21:40:06.905Z,93.62
2019-03-18T21:42:35.986Z,93.84
2019-03-18T21:45:05.541Z,93.88
2019-03-18T21:47:34.659Z,94.16
2019-03-18T21:50:03.883Z,94.60
2019-03-18T21:52:33.198Z,94.73
2019-03-18T21:55:02.296Z,94.76
2019-03-18T21:57:31.408Z,94.84
2019-03-18T22:00:00.665Z,95.16
2019-03-18T22:02:30.105Z,95.06
2019-03-18T22:04:59.191Z,95.05
2019-03-18T22:07:28.399Z,94.58
2019-03-18T22:09:57.468Z,97.10
2019-03-18T22:12:26.605Z,99.67
2019-03-18T22:14:56.031Z,99.67
2019-03-18T22:17:25.256Z,95.99
2019-03-18T22:19:54.470Z,95.76
2019-03-18T22:22:23.679Z,94.94
2019-03-18T22:24:52.744Z,92.96
2019-03-18T22:27:22.090Z,92.54
2019-03-18T22:29:51.164Z,92.86
2019-03-18T22:32:20.432Z,93.23
2019-03-18T22:34:49.574Z,94.02
2019-03-18T22:37:18.945Z,94.02
2019-03-18T22:39:47.994Z,94.07
2019-03-18T22:42:17.289Z,94.39
2019-03-18T22:44:46.590Z,94.59
2019-03-18T22:47:15.655Z,94.31
2019-03-18T22:49:45.270Z,94.32
2019-03-18T22:52:14.751Z,94.42
2019-03-18T22:54:43.964Z,94.85
2019-03-18T22:57:13.017Z,95.38
2019-03-18T22:59:42.492Z,95.38
2019-03-18T23:02:11.570Z,96.12
2019-03-18T23:04:40.680Z,96.49
2019-03-18T23:07:10.055Z,96.87
2019-03-18T23:09:39.171Z,96.50
2019-03-18T23:12:08.235Z,96.48
2019-03-18T23:14:37.332Z,96.63
2019-03-18T23:17:06.356Z,96.63
2019-03-18T23:19:35.686Z,96.59
2019-03-18T23:22:04.886Z,96.05
2019-03-18T23:24:34.234Z,96.05
2019-03-18T23:27:03.278Z,96.20
2019-03-18T23:29:33.394Z,96.36
2019-03-18T23:32:02.694Z,96.49
2019-03-18T23:34:31.975Z,96.39
2019-03-18T23:37:01.433Z,96.66
2019-03-18T23:39:30.499Z,96.66
2019-03-18T23:41:59.558Z,96.66
2019-03-18T23:44:28.740Z,96.75
2019-03-18T23:46:58.107Z,96.97
2019-03-18T23:49:27.227Z,96.89
2019-03-18T23:51:56.382Z,96.80
2019-03-18T23:54:25.742Z,96.96
2019-03-18T23:56:55.000Z,97.18
2019-03-18T23:59:24.054Z,97.16
